createdAt,value
2022-08-20T00:05:52.069Z,22.60
2022-08-20T00:16:01.007Z,22.59
2022-08-20T00:26:06.897Z,22.70
2022-08-20T00:36:12.236Z,22.42
2022-08-20T00:46:22.394Z,22.36
2022-08-20T00:56:36.266Z,22.42
2022-08-20T01:06:42.586Z,22.30
2022-08-20T01:16:49.227Z,22.22
2022-08-20T01:26:55.413Z,22.31
2022-08-20T01:36:59.811Z,22.35
2022-08-20T01:47:16.006Z,22.41
2022-08-20T01:57:22.701Z,22.45
2022-08-20T02:07:28.266Z,22.21
2022-08-20T02:17:32.126Z,22.11
2022-08-20T02:27:38.269Z,22.05
2022-08-20T02:37:43.937Z,22.34
2022-08-20T02:47:49.518Z,22.42
2022-08-20T02:57:55.210Z,22.32
2022-08-20T03:08:04.855Z,22.41
2022-08-20T03:18:08.922Z,22.33
2022-08-20T03:28:14.643Z,22.32
2022-08-20T03:38:21.487Z,22.22
2022-08-20T03:48:38.447Z,22.14
2022-08-20T03:58:42.126Z,22.05
2022-08-20T04:08:47.243Z,21.85
2022-08-20T04:18:56.038Z,21.84
2022-08-20T04:29:07.349Z,21.66
2022-08-20T04:39:11.135Z,21.70
2022-08-20T04:49:16.443Z,21.80
2022-08-20T04:59:20.147Z,21.53
2022-08-20T05:09:25.295Z,21.67
2022-08-20T05:19:29.836Z,21.96
2022-08-20T05:29:34.923Z,22.07
2022-08-20T05:39:38.824Z,22.28
2022-08-20T05:49:46.309Z,22.24
2022-08-20T05:59:50.218Z,22.34
2022-08-20T06:09:55.267Z,22.66
2022-08-20T06:19:59.044Z,22.65
2022-08-20T06:30:06.532Z,22.90
2022-08-20T06:40:14.556Z,23.38
2022-08-20T06:50:22.966Z,23.48
2022-08-20T07:00:28.737Z,23.47
2022-08-20T07:10:35.519Z,23.97
2022-08-20T07:20:40.478Z,24.04
2022-08-20T07:31:04.236Z,23.87
2022-08-20T07:41:17.478Z,24.31
2022-08-20T07:51:24.148Z,24.59
2022-08-20T08:01:41.575Z,24.95
2022-08-20T08:12:02.859Z,25.17
2022-08-20T08:22:11.452Z,25.29
2022-08-20T08:32:16.571Z,25.56
2022-08-20T08:42:30.182Z,25.38
2022-08-20T08:52:42.918Z,25.44
2022-08-20T09:02:59.437Z,26.09
2022-08-20T09:13:04.808Z,26.76
2022-08-20T09:23:08.589Z,26.83
2022-08-20T09:33:13.761Z,26.91
2022-08-20T09:43:17.497Z,26.71
2022-08-20T09:53:23.281Z,26.19
2022-08-20T10:03:27.062Z,27.26
2022-08-20T10:13:32.185Z,26.16
2022-08-20T10:23:35.871Z,25.69
2022-08-20T10:33:42.364Z,26.21
2022-08-20T10:43:48.826Z,25.78
2022-08-20T10:53:53.936Z,25.97
2022-08-20T11:03:57.626Z,26.51
2022-08-20T11:14:02.718Z,26.37
2022-08-20T11:24:07.026Z,26.93
2022-08-20T11:34:12.842Z,27.73
2022-08-20T11:44:21.251Z,28.10
2022-08-20T11:54:28.831Z,27.31
2022-08-20T12:04:33.814Z,27.50
2022-08-20T12:14:40.514Z,28.02
2022-08-20T12:24:44.586Z,28.23
2022-08-20T12:34:51.430Z,29.17
2022-08-20T12:44:55.239Z,29.76
2022-08-20T12:55:01.195Z,29.41
2022-08-20T13:05:06.110Z,28.95
2022-08-20T13:15:13.138Z,28.23
2022-08-20T13:25:19.753Z,27.90
2022-08-20T13:35:25.577Z,27.83
2022-08-20T13:45:29.350Z,28.26
2022-08-20T13:55:34.691Z,28.14
2022-08-20T14:05:42.776Z,28.93
2022-08-20T14:15:51.242Z,29.10
2022-08-20T14:25:55.085Z,28.79
2022-08-20T14:36:00.317Z,28.39
2022-08-20T14:46:04.246Z,28.71
2022-08-20T14:56:09.715Z,28.29
2022-08-20T15:06:22.308Z,28.20
2022-08-20T15:16:28.218Z,29.00
2022-08-20T15:26:32.136Z,28.12
2022-08-20T15:36:37.265Z,27.94
2022-08-20T15:46:45.505Z,28.20
2022-08-20T15:57:01.327Z,28.93
2022-08-20T16:07:15.929Z,29.04
2022-08-20T16:17:32.062Z,28.83
2022-08-20T16:27:44.236Z,29.48
2022-08-20T16:38:01.123Z,29.62
2022-08-20T16:48:08.267Z,30.06
2022-08-20T16:58:13.363Z,29.96
2022-08-20T17:08:22.189Z,31.16
2022-08-20T17:18:33.886Z,31.49
2022-08-20T17:28:40.367Z,32.03
2022-08-20T17:38:51.630Z,32.54
2022-08-20T17:48:58.472Z,33.24
2022-08-20T17:59:10.866Z,29.17
2022-08-20T18:09:24.591Z,26.80
2022-08-20T18:20:00.605Z,25.73
2022-08-20T18:30:05.593Z,25.26
2022-08-20T18:40:27.736Z,24.76
2022-08-20T18:50:53.141Z,24.45
2022-08-20T19:01:01.697Z,24.10
2022-08-20T19:11:27.124Z,23.77
2022-08-20T19:21:36.347Z,23.75
2022-08-20T19:31:41.164Z,23.40
2022-08-20T19:41:51.361Z,23.18
2022-08-20T19:52:11.641Z,22.91
2022-08-20T20:02:21.809Z,22.61
2022-08-20T20:12:26.442Z,22.58
2022-08-20T20:22:35.560Z,22.65
2022-08-20T20:32:48.833Z,22.30
2022-08-20T20:43:05.701Z,22.05
2022-08-20T20:53:09.703Z,22.27
2022-08-20T21:03:15.162Z,21.90
2022-08-20T21:13:18.909Z,21.88
2022-08-20T21:23:40.214Z,21.68
2022-08-20T21:33:48.009Z,21.51
2022-08-20T21:43:53.294Z,21.56
2022-08-20T21:53:57.105Z,21.37
2022-08-20T22:04:02.591Z,21.25
2022-08-20T22:14:09.797Z,21.34
2022-08-20T22:24:15.285Z,21.40
2022-08-20T22:34:21.660Z,21.37
2022-08-20T22:44:28.280Z,21.01
2022-08-20T22:54:32.063Z,21.07
2022-08-20T23:04:38.035Z,20.60
2022-08-20T23:14:42.134Z,20.48
2022-08-20T23:24:47.377Z,20.51
2022-08-20T23:34:51.139Z,20.61
2022-08-20T23:44:56.254Z,20.58
2022-08-20T23:54:59.997Z,20.41
